Wetterdaten: Woche 13.11.17 - 19.11.17 (KW46)
Datum Zeit Temp. A. Feuchte A. Luftdruck Regen Wind Richtung Taupunkt Windchill Windben
13.11.2017 00:00 0,4 C 96 % 1007,0 hPa 0,0 l/m 1,4 km/h (1 Bft) O -0,1 C 0,4 C 4,4 km/h (1 Bft)
13.11.2017 01:00 0,5 C 96 % 1007,8 hPa 0,0 l/m 1,2 km/h (1 Bft) O -0,1 C 0,5 C 4,4 km/h (1 Bft)
13.11.2017 02:00 0,4 C 96 % 1008,5 hPa 0,0 l/m 0,6 km/h (0 Bft) O -0,1 C 0,4 C 2,4 km/h (1 Bft)
13.11.2017 03:00 0,4 C 97 % 1009,3 hPa 0,0 l/m 0,0 km/h (0 Bft) O -0,1 C 0,4 C 0,7 km/h (0 Bft)
13.11.2017 04:00 0,4 C 97 % 1010,0 hPa 0,0 l/m 0,0 km/h (0 Bft) O -0,0 C 0,4 C 0,1 km/h (0 Bft)
13.11.2017 05:00 0,4 C 97 % 1010,8 hPa 0,0 l/m 0,1 km/h (0 Bft) O -0,0 C 0,4 C 0,5 km/h (0 Bft)
13.11.2017 06:00 0,4 C 97 % 1011,5 hPa 0,0 l/m 0,0 km/h (0 Bft) O -0,0 C 0,4 C 0,0 km/h (0 Bft)
13.11.2017 07:00 0,4 C 97 % 1012,5 hPa 0,0 l/m 0,0 km/h (0 Bft) O -0,0 C 0,4 C 0,0 km/h (0 Bft)
13.11.2017 08:00 0,6 C 97 % 1013,7 hPa 0,3 l/m 0,0 km/h (0 Bft) O 0,2 C 0,6 C 0,0 km/h (0 Bft)
13.11.2017 09:00 1,0 C 97 % 1014,5 hPa 1,0 l/m 0,2 km/h (0 Bft) O 0,7 C 1,0 C 1,3 km/h (1 Bft)
13.11.2017 10:00 2,0 C 97 % 1015,0 hPa 0,8 l/m 0,8 km/h (0 Bft) O 1,5 C 2,0 C 3,5 km/h (1 Bft)
13.11.2017 11:00 2,7 C 95 % 1015,7 hPa 0,8 l/m 0,4 km/h (0 Bft) S-SO 1,9 C 2,7 C 2,7 km/h (1 Bft)
13.11.2017 12:00 2,9 C 94 % 1015,9 hPa 0,3 l/m 0,5 km/h (0 Bft) W 2,0 C 2,9 C 3,4 km/h (1 Bft)
13.11.2017 13:00 2,8 C 94 % 1016,6 hPa 0,0 l/m 0,8 km/h (0 Bft) O-NO 2,0 C 2,8 C 4,1 km/h (1 Bft)
13.11.2017 14:00 3,4 C 93 % 1017,1 hPa 0,0 l/m 0,7 km/h (0 Bft) O-SO 2,3 C 3,4 C 3,1 km/h (1 Bft)
13.11.2017 15:00 3,0 C 93 % 1017,7 hPa 0,3 l/m 0,7 km/h (0 Bft) O-NO 2,0 C 3,0 C 3,6 km/h (1 Bft)
13.11.2017 16:00 2,4 C 94 % 1018,6 hPa 0,0 l/m 0,3 km/h (0 Bft) O-NO 1,5 C 2,4 C 1,7 km/h (1 Bft)
13.11.2017 17:00 1,5 C 96 % 1019,3 hPa 0,0 l/m 0,2 km/h (0 Bft) SW 0,8 C 1,5 C 1,2 km/h (1 Bft)
13.11.2017 18:00 0,9 C 96 % 1020,0 hPa 0,0 l/m 0,0 km/h (0 Bft) SW 0,3 C 0,9 C 0,1 km/h (0 Bft)
13.11.2017 19:00 -0,1 C 96 % 1020,9 hPa 0,0 l/m 0,1 km/h (0 Bft) SW -0,6 C -0,1 C 0,8 km/h (0 Bft)
13.11.2017 20:00 0,0 C 97 % 1021,4 hPa 0,0 l/m 0,1 km/h (0 Bft) SW -0,4 C 0,0 C 0,4 km/h (0 Bft)
13.11.2017 21:00 0,3 C 98 % 1021,9 hPa 0,0 l/m 0,0 km/h (0 Bft) SW -0,0 C 0,3 C 0,0 km/h (0 Bft)
13.11.2017 22:00 0,4 C 97 % 1022,2 hPa 0,0 l/m 0,0 km/h (0 Bft) SW 0,0 C 0,4 C 0,0 km/h (0 Bft)
13.11.2017 23:00 0,2 C 97 % 1022,6 hPa 0,0 l/m 0,0 km/h (0 Bft) SW -0,2 C 0,2 C 0,0 km/h (0 Bft)
14.11.2017 00:00 -0,0 C 98 % 1022,7 hPa 0,0 l/m 0,0 km/h (0 Bft) SW -0,4 C -0,0 C 0,0 km/h (0 Bft)
14.11.2017 01:00 0,0 C 98 % 1023,0 hPa 0,0 l/m 0,0 km/h (0 Bft) SW -0,3 C 0,0 C 0,0 km/h (0 Bft)
14.11.2017 02:00 -0,4 C 97 % 1023,5 hPa 0,0 l/m 0,2 km/h (0 Bft) SW -0,8 C -0,4 C 1,2 km/h (1 Bft)
14.11.2017 03:00 -0,3 C 98 % 1023,8 hPa 0,0 l/m 0,0 km/h (0 Bft) O -0,6 C -0,3 C 0,4 km/h (0 Bft)
14.11.2017 04:00 -0,7 C 97 % 1024,0 hPa 0,0 l/m 0,0 km/h (0 Bft) O -1,1 C -0,7 C 0,4 km/h (0 Bft)
14.11.2017 05:00 -1,1 C 97 % 1024,3 hPa 0,0 l/m 0,0 km/h (0 Bft) O -1,5 C -1,1 C 0,3 km/h (0 Bft)
14.11.2017 06:00 -1,3 C 98 % 1024,9 hPa 0,0 l/m 0,0 km/h (0 Bft) O -1,6 C -1,3 C 0,8 km/h (0 Bft)
14.11.2017 07:00 -1,1 C 98 % 1025,7 hPa 0,0 l/m 0,1 km/h (0 Bft) NO -1,4 C -1,1 C 0,5 km/h (0 Bft)
14.11.2017 08:00 -0,6 C 98 % 1026,5 hPa 0,0 l/m 0,1 km/h (0 Bft) NO -0,9 C -0,6 C 0,9 km/h (0 Bft)
14.11.2017 09:00 -0,1 C 98 % 1026,9 hPa 0,3 l/m 0,2 km/h (0 Bft) O-SO -0,4 C -0,1 C 1,1 km/h (0 Bft)
14.11.2017 10:00 0,5 C 98 % 1027,1 hPa 0,0 l/m 0,2 km/h (0 Bft) O-SO 0,2 C 0,5 C 1,5 km/h (1 Bft)
14.11.2017 11:00 0,8 C 97 % 1026,9 hPa 0,0 l/m 0,4 km/h (0 Bft) W 0,4 C 0,8 C 1,7 km/h (1 Bft)
14.11.2017 12:00 1,3 C 95 % 1026,8 hPa 0,0 l/m 0,7 km/h (0 Bft) N 0,7 C 1,3 C 2,5 km/h (1 Bft)
14.11.2017 13:00 2,1 C 91 % 1026,5 hPa 0,0 l/m 0,8 km/h (0 Bft) S-SW 0,8 C 2,1 C 4,3 km/h (1 Bft)
14.11.2017 14:00 2,5 C 89 % 1026,3 hPa 0,0 l/m 0,8 km/h (0 Bft) W 0,8 C 2,5 C 4,1 km/h (1 Bft)
14.11.2017 15:00 3,1 C 86 % 1026,4 hPa 0,0 l/m 0,7 km/h (0 Bft) SW 1,0 C 3,1 C 2,3 km/h (1 Bft)
14.11.2017 16:00 2,4 C 88 % 1026,7 hPa 0,0 l/m 0,1 km/h (0 Bft) SW 0,5 C 2,4 C 1,3 km/h (1 Bft)
14.11.2017 17:00 -0,4 C 93 % 1027,1 hPa 0,0 l/m 0,0 km/h (0 Bft) SW -1,4 C -0,4 C 0,1 km/h (0 Bft)
14.11.2017 18:00 -1,2 C 95 % 1027,5 hPa 0,0 l/m 0,0 km/h (0 Bft) SW -1,9 C -1,2 C 0,0 km/h (0 Bft)
14.11.2017 19:00 -1,3 C 96 % 1027,9 hPa 0,0 l/m 0,0 km/h (0 Bft) SW -1,8 C -1,3 C 0,0 km/h (0 Bft)
14.11.2017 20:00 -1,5 C 96 % 1028,3 hPa 0,0 l/m 0,0 km/h (0 Bft) SW -2,0 C -1,5 C 0,0 km/h (0 Bft)
14.11.2017 21:00 -1,8 C 96 % 1028,5 hPa 0,0 l/m 0,1 km/h (0 Bft) SW -2,3 C -1,8 C 0,5 km/h (0 Bft)
14.11.2017 22:00 -1,9 C 97 % 1028,4 hPa 0,0 l/m 0,1 km/h (0 Bft) W-NW -2,3 C -1,9 C 1,6 km/h (1 Bft)
14.11.2017 23:00 -2,3 C 97 % 1028,3 hPa 0,0 l/m 0,1 km/h (0 Bft) NW -2,7 C -2,3 C 1,1 km/h (1 Bft)
15.11.2017 00:00 -2,5 C 97 % 1028,2 hPa 0,0 l/m 0,0 km/h (0 Bft) NW -2,9 C -2,5 C 0,0 km/h (0 Bft)
15.11.2017 01:00 -2,6 C 97 % 1028,0 hPa 0,0 l/m 0,0 km/h (0 Bft) NW -3,0 C -2,6 C 0,0 km/h (0 Bft)
15.11.2017 02:00 -2,6 C 97 % 1027,8 hPa 0,0 l/m 0,0 km/h (0 Bft) NW -3,0 C -2,6 C 0,0 km/h (0 Bft)
15.11.2017 03:00 -2,9 C 97 % 1027,5 hPa 0,0 l/m 0,0 km/h (0 Bft) NW -3,3 C -2,9 C 0,0 km/h (0 Bft)
15.11.2017 04:00 -3,3 C 97 % 1027,3 hPa 0,0 l/m 0,0 km/h (0 Bft) NW -3,7 C -3,3 C 0,0 km/h (0 Bft)
15.11.2017 05:00 -3,9 C 96 % 1027,3 hPa 0,0 l/m 0,0 km/h (0 Bft) NW -4,4 C -3,9 C 0,0 km/h (0 Bft)
15.11.2017 06:00 -4,5 C 96 % 1027,5 hPa 0,0 l/m 0,0 km/h (0 Bft) NW -5,0 C -4,5 C 0,0 km/h (0 Bft)
15.11.2017 07:00 -4,8 C 96 % 1027,9 hPa 0,0 l/m 0,0 km/h (0 Bft) NW -5,3 C -4,8 C 0,0 km/h (0 Bft)
15.11.2017 08:00 -4,2 C 97 % 1028,2 hPa 0,0 l/m 0,0 km/h (0 Bft) NW -4,6 C -4,2 C 0,0 km/h (0 Bft)
15.11.2017 09:00 -1,9 C 97 % 1028,3 hPa 0,0 l/m 0,0 km/h (0 Bft) NW -2,3 C -1,9 C 0,0 km/h (0 Bft)
15.11.2017 10:00 0,5 C 96 % 1028,1 hPa 0,0 l/m 0,0 km/h (0 Bft) NW 0,0 C 0,5 C 0,0 km/h (0 Bft)
15.11.2017 11:00 3,7 C 84 % 1027,6 hPa 0,0 l/m 2,4 km/h (1 Bft) NW 1,2 C 3,7 C 5,6 km/h (2 Bft)
15.11.2017 12:00 4,8 C 75 % 1027,2 hPa 0,0 l/m 2,8 km/h (1 Bft) W-NW 0,7 C 4,8 C 5,7 km/h (2 Bft)
15.11.2017 13:00 5,5 C 67 % 1026,5 hPa 0,0 l/m 3,5 km/h (1 Bft) W-NW -0,2 C 5,5 C 6,9 km/h (2 Bft)
15.11.2017 14:00 5,8 C 66 % 1026,1 hPa 0,0 l/m 3,5 km/h (1 Bft) W-NW -0,1 C 5,7 C 6,6 km/h (2 Bft)
15.11.2017 15:00 5,3 C 68 % 1026,0 hPa 0,0 l/m 1,9 km/h (1 Bft) NW -0,0 C 5,3 C 4,5 km/h (1 Bft)
15.11.2017 16:00 3,3 C 80 % 1025,9 hPa 0,0 l/m 0,5 km/h (0 Bft) NW 0,1 C 3,3 C 1,4 km/h (1 Bft)
15.11.2017 17:00 0,3 C 90 % 1026,2 hPa 0,0 l/m 0,0 km/h (0 Bft) NW -1,1 C 0,3 C 0,0 km/h (0 Bft)
15.11.2017 18:00 -1,2 C 94 % 1026,5 hPa 0,0 l/m 0,0 km/h (0 Bft) NW -2,1 C -1,2 C 0,0 km/h (0 Bft)
15.11.2017 19:00 -1,7 C 95 % 1026,5 hPa 0,0 l/m 0,0 km/h (0 Bft) NW -2,5 C -1,7 C 0,0 km/h (0 Bft)
15.11.2017 20:00 -1,9 C 96 % 1026,3 hPa 0,0 l/m 0,0 km/h (0 Bft) NW -2,5 C -1,9 C 0,0 km/h (0 Bft)
15.11.2017 21:00 -2,1 C 95 % 1026,1 hPa 0,0 l/m 0,0 km/h (0 Bft) NW -2,8 C -2,1 C 0,0 km/h (0 Bft)
15.11.2017 22:00 -2,5 C 95 % 1025,9 hPa 0,0 l/m 0,0 km/h (0 Bft) NW -3,2 C -2,5 C 0,0 km/h (0 Bft)
15.11.2017 23:00 -3,0 C 96 % 1025,7 hPa 0,0 l/m 0,0 km/h (0 Bft) NW -3,6 C -3,0 C 0,0 km/h (0 Bft)
16.11.2017 00:00 -3,3 C 96 % 1025,5 hPa 0,0 l/m 0,0 km/h (0 Bft) NW -3,8 C -3,3 C 0,0 km/h (0 Bft)
16.11.2017 01:00 -3,3 C 96 % 1025,2 hPa 0,0 l/m 0,0 km/h (0 Bft) NW -3,8 C -3,3 C 0,0 km/h (0 Bft)
16.11.2017 02:00 -3,8 C 96 % 1025,1 hPa 0,0 l/m 0,0 km/h (0 Bft) NW -4,3 C -3,8 C 0,0 km/h (0 Bft)
16.11.2017 03:00 -3,6 C 97 % 1024,9 hPa 0,0 l/m 0,0 km/h (0 Bft) NW -4,0 C -3,6 C 0,1 km/h (0 Bft)
16.11.2017 04:00 -2,8 C 97 % 1024,7 hPa 0,0 l/m 0,4 km/h (0 Bft) NW -3,2 C -2,8 C 2,5 km/h (1 Bft)
16.11.2017 05:00 -2,5 C 97 % 1024,8 hPa 0,0 l/m 0,7 km/h (0 Bft) NW -2,9 C -2,5 C 2,5 km/h (1 Bft)
16.11.2017 06:00 -2,7 C 97 % 1024,8 hPa 0,0 l/m 1,0 km/h (0 Bft) NW -3,2 C -2,7 C 4,5 km/h (1 Bft)
16.11.2017 07:00 -2,8 C 97 % 1024,9 hPa 0,0 l/m 0,1 km/h (0 Bft) NW -3,3 C -2,8 C 1,3 km/h (1 Bft)
16.11.2017 08:00 -2,4 C 97 % 1025,1 hPa 0,0 l/m 0,2 km/h (0 Bft) NW -2,8 C -2,4 C 1,9 km/h (1 Bft)
16.11.2017 09:00 -2,0 C 96 % 1025,4 hPa 0,0 l/m 0,5 km/h (0 Bft) NW -2,5 C -2,0 C 2,3 km/h (1 Bft)
16.11.2017 10:00 -1,7 C 95 % 1025,5 hPa 0,0 l/m 0,7 km/h (0 Bft) NW -2,5 C -1,7 C 2,8 km/h (1 Bft)
16.11.2017 11:00 -1,3 C 92 % 1025,3 hPa 0,0 l/m 0,7 km/h (0 Bft) W-NW -2,4 C -1,3 C 2,6 km/h (1 Bft)
16.11.2017 12:00 -1,2 C 92 % 1025,0 hPa 0,0 l/m 0,7 km/h (0 Bft) W -2,4 C -1,2 C 2,5 km/h (1 Bft)
16.11.2017 13:00 -0,9 C 90 % 1025,2 hPa 0,0 l/m 0,5 km/h (0 Bft) N-NO -2,3 C -0,9 C 2,5 km/h (1 Bft)
16.11.2017 14:00 -0,6 C 90 % 1025,1 hPa 0,0 l/m 0,5 km/h (0 Bft) SW -2,0 C -0,6 C 2,8 km/h (1 Bft)
16.11.2017 15:00 -0,6 C 90 % 1025,1 hPa 0,0 l/m 0,2 km/h (0 Bft) W-SW -2,0 C -0,6 C 1,3 km/h (1 Bft)
16.11.2017 16:00 -0,7 C 91 % 1025,4 hPa 0,0 l/m 0,2 km/h (0 Bft) N-NO -2,0 C -0,7 C 1,9 km/h (1 Bft)
16.11.2017 17:00 -0,9 C 92 % 1025,6 hPa 0,0 l/m 0,0 km/h (0 Bft) N-NO -2,0 C -0,9 C 0,5 km/h (0 Bft)
16.11.2017 18:00 -1,1 C 92 % 1025,9 hPa 0,0 l/m 0,3 km/h (0 Bft) N -2,2 C -1,1 C 1,9 km/h (1 Bft)
16.11.2017 19:00 -1,4 C 92 % 1026,2 hPa 0,0 l/m 0,6 km/h (0 Bft) O -2,4 C -1,4 C 2,5 km/h (1 Bft)
16.11.2017 20:00 -1,6 C 93 % 1026,6 hPa 0,0 l/m 0,3 km/h (0 Bft) NO -2,6 C -1,6 C 2,4 km/h (1 Bft)
16.11.2017 21:00 -1,9 C 95 % 1026,8 hPa 0,0 l/m 0,5 km/h (0 Bft) NO -2,7 C -1,9 C 2,8 km/h (1 Bft)
16.11.2017 22:00 -2,2 C 96 % 1026,8 hPa 0,0 l/m 0,1 km/h (0 Bft) NO -2,8 C -2,2 C 0,9 km/h (0 Bft)
16.11.2017 23:00 -2,3 C 96 % 1027,0 hPa 0,0 l/m 0,0 km/h (0 Bft) NO -2,8 C -2,3 C 0,0 km/h (0 Bft)
17.11.2017 00:00 -2,3 C 96 % 1027,0 hPa 0,0 l/m 0,0 km/h (0 Bft) NO -2,8 C -2,3 C 0,0 km/h (0 Bft)
17.11.2017 01:00 -2,3 C 96 % 1027,0 hPa 0,0 l/m 0,3 km/h (0 Bft) NO -2,9 C -2,3 C 1,2 km/h (1 Bft)
17.11.2017 02:00 -2,2 C 97 % 1027,0 hPa 0,0 l/m 0,6 km/h (0 Bft) O-NO -2,7 C -2,2 C 2,8 km/h (1 Bft)
17.11.2017 03:00 -1,7 C 96 % 1026,7 hPa 0,0 l/m 0,2 km/h (0 Bft) NO -2,3 C -1,7 C 1,6 km/h (1 Bft)
17.11.2017 04:00 -1,2 C 95 % 1026,6 hPa 0,0 l/m 0,3 km/h (0 Bft) NO -1,9 C -1,2 C 1,5 km/h (1 Bft)
17.11.2017 05:00 -0,8 C 95 % 1026,8 hPa 0,0 l/m 0,0 km/h (0 Bft) NO -1,5 C -0,8 C 0,4 km/h (0 Bft)
17.11.2017 06:00 -0,5 C 95 % 1026,8 hPa 0,0 l/m 0,0 km/h (0 Bft) NO -1,2 C -0,5 C 0,0 km/h (0 Bft)
17.11.2017 07:00 -0,3 C 96 % 1026,9 hPa 0,0 l/m 0,0 km/h (0 Bft) NO -0,8 C -0,3 C 0,3 km/h (0 Bft)
17.11.2017 08:00 0,1 C 97 % 1027,2 hPa 0,0 l/m 0,0 km/h (0 Bft) NO -0,3 C 0,1 C 0,3 km/h (0 Bft)
17.11.2017 09:00 0,6 C 97 % 1027,4 hPa 0,3 l/m 0,0 km/h (0 Bft) NO 0,2 C 0,6 C 0,0 km/h (0 Bft)
17.11.2017 10:00 1,5 C 98 % 1027,3 hPa 0,3 l/m 0,1 km/h (0 Bft) NO 1,1 C 1,5 C 0,5 km/h (0 Bft)
17.11.2017 11:00 3,1 C 97 % 1027,2 hPa 0,0 l/m 0,5 km/h (0 Bft) W 2,7 C 3,1 C 1,7 km/h (1 Bft)
17.11.2017 12:00 3,6 C 97 % 1027,0 hPa 0,0 l/m 0,2 km/h (0 Bft) W 3,2 C 3,6 C 1,3 km/h (1 Bft)
17.11.2017 13:00 4,2 C 97 % 1026,8 hPa 0,0 l/m 0,8 km/h (0 Bft) NW 3,8 C 4,2 C 3,3 km/h (1 Bft)
17.11.2017 14:00 4,2 C 97 % 1026,3 hPa 0,0 l/m 0,7 km/h (0 Bft) NW 3,8 C 4,2 C 3,6 km/h (1 Bft)
17.11.2017 15:00 4,2 C 97 % 1026,0 hPa 0,0 l/m 0,8 km/h (0 Bft) NW 3,7 C 4,2 C 3,3 km/h (1 Bft)
17.11.2017 16:00 3,8 C 97 % 1026,1 hPa 0,0 l/m 0,9 km/h (0 Bft) W 3,3 C 3,8 C 4,4 km/h (1 Bft)
17.11.2017 17:00 3,4 C 97 % 1026,1 hPa 0,0 l/m 0,3 km/h (0 Bft) W-NW 3,0 C 3,4 C 2,0 km/h (1 Bft)
17.11.2017 18:00 3,3 C 97 % 1026,0 hPa 0,0 l/m 0,0 km/h (0 Bft) W-NW 2,9 C 3,3 C 0,0 km/h (0 Bft)
17.11.2017 19:00 3,2 C 98 % 1025,9 hPa 0,0 l/m 0,0 km/h (0 Bft) W-NW 2,9 C 3,2 C 0,0 km/h (0 Bft)
17.11.2017 20:00 3,1 C 98 % 1025,7 hPa 0,0 l/m 0,0 km/h (0 Bft) W-NW 2,8 C 3,1 C 0,0 km/h (0 Bft)
17.11.2017 21:00 2,9 C 98 % 1025,6 hPa 0,0 l/m 0,0 km/h (0 Bft) W-NW 2,6 C 2,9 C 0,0 km/h (0 Bft)
17.11.2017 22:00 2,8 C 98 % 1025,5 hPa 0,0 l/m 0,0 km/h (0 Bft) W-NW 2,6 C 2,8 C 0,0 km/h (0 Bft)
17.11.2017 23:00 2,7 C 98 % 1025,3 hPa 0,0 l/m 0,0 km/h (0 Bft) W-NW 2,4 C 2,7 C 0,0 km/h (0 Bft)
18.11.2017 00:00 2,5 C 98 % 1025,1 hPa 0,0 l/m 0,0 km/h (0 Bft) W-NW 2,2 C 2,5 C 0,0 km/h (0 Bft)
18.11.2017 01:00 2,3 C 98 % 1024,6 hPa 0,0 l/m 0,0 km/h (0 Bft) W-NW 2,1 C 2,3 C 0,0 km/h (0 Bft)
18.11.2017 02:00 2,2 C 98 % 1024,6 hPa 0,0 l/m 0,0 km/h (0 Bft) W-NW 1,9 C 2,2 C 0,0 km/h (0 Bft)
18.11.2017 03:00 2,1 C 98 % 1024,3 hPa 0,0 l/m 0,1 km/h (0 Bft) NO 1,8 C 2,1 C 0,7 km/h (0 Bft)
18.11.2017 04:00 2,0 C 98 % 1024,1 hPa 0,0 l/m 0,1 km/h (0 Bft) NO 1,7 C 2,0 C 0,9 km/h (0 Bft)
18.11.2017 05:00 1,9 C 98 % 1023,9 hPa 0,0 l/m 0,0 km/h (0 Bft) NO 1,6 C 1,9 C 0,0 km/h (0 Bft)
18.11.2017 06:00 1,9 C 98 % 1023,8 hPa 0,0 l/m 0,2 km/h (0 Bft) O-NO 1,6 C 1,9 C 1,5 km/h (1 Bft)
18.11.2017 07:00 1,4 C 97 % 1023,8 hPa 0,0 l/m 0,0 km/h (0 Bft) O-NO 1,0 C 1,4 C 0,7 km/h (0 Bft)
18.11.2017 08:00 1,2 C 98 % 1023,9 hPa 0,0 l/m 0,2 km/h (0 Bft) S-SO 0,9 C 1,2 C 2,1 km/h (1 Bft)
18.11.2017 09:00 2,0 C 97 % 1023,8 hPa 0,0 l/m 1,4 km/h (1 Bft) O-NO 1,5 C 2,0 C 4,3 km/h (1 Bft)
18.11.2017 10:00 3,2 C 92 % 1024,0 hPa 0,0 l/m 2,6 km/h (1 Bft) O-NO 2,0 C 3,2 C 6,9 km/h (2 Bft)
18.11.2017 11:00 3,1 C 90 % 1023,6 hPa 0,0 l/m 3,0 km/h (1 Bft) NO 1,6 C 3,1 C 7,1 km/h (2 Bft)
18.11.2017 12:00 3,3 C 89 % 1023,3 hPa 0,0 l/m 3,8 km/h (1 Bft) O-NO 1,6 C 3,3 C 9,4 km/h (2 Bft)
18.11.2017 13:00 3,3 C 86 % 1022,5 hPa 0,0 l/m 2,9 km/h (1 Bft) NO 1,3 C 3,3 C 9,9 km/h (2 Bft)
18.11.2017 14:00 3,3 C 83 % 1022,1 hPa 0,0 l/m 3,5 km/h (1 Bft) O-NO 0,6 C 3,3 C 10,2 km/h (2 Bft)
18.11.2017 15:00 3,2 C 82 % 1021,9 hPa 0,0 l/m 2,8 km/h (1 Bft) O 0,4 C 3,2 C 9,4 km/h (2 Bft)
18.11.2017 16:00 2,8 C 84 % 1021,8 hPa 0,0 l/m 2,3 km/h (1 Bft) NO 0,4 C 2,8 C 8,7 km/h (2 Bft)
18.11.2017 17:00 2,6 C 85 % 1021,6 hPa 0,0 l/m 4,5 km/h (1 Bft) O 0,3 C 2,5 C 12,1 km/h (2 Bft)
18.11.2017 18:00 2,0 C 83 % 1021,8 hPa 0,0 l/m 6,6 km/h (2 Bft) O-NO -0,5 C 1,5 C 18,5 km/h (3 Bft)
18.11.2017 19:00 2,0 C 83 % 1021,9 hPa 0,0 l/m 4,9 km/h (1 Bft) O-NO -0,6 C 2,0 C 13,4 km/h (3 Bft)
18.11.2017 20:00 2,0 C 85 % 1021,9 hPa 0,0 l/m 4,3 km/h (1 Bft) O -0,4 C 1,9 C 13,6 km/h (3 Bft)
18.11.2017 21:00 1,9 C 84 % 1021,7 hPa 0,0 l/m 3,6 km/h (1 Bft) O -0,5 C 1,9 C 9,7 km/h (2 Bft)
18.11.2017 22:00 1,6 C 86 % 1021,0 hPa 0,0 l/m 4,0 km/h (1 Bft) O-NO -0,5 C 1,6 C 11,0 km/h (2 Bft)
18.11.2017 23:00 0,5 C 94 % 1020,5 hPa 0,0 l/m 4,9 km/h (1 Bft) O-NO -0,4 C 0,5 C 11,8 km/h (2 Bft)
19.11.2017 00:00 0,3 C 95 % 1020,0 hPa 0,0 l/m 4,5 km/h (1 Bft) O-NO -0,4 C 0,2 C 11,4 km/h (2 Bft)
19.11.2017 01:00 0,3 C 96 % 1019,2 hPa 0,0 l/m 5,4 km/h (2 Bft) O-NO -0,4 C 0,2 C 14,1 km/h (3 Bft)
19.11.2017 02:00 0,2 C 96 % 1018,9 hPa 0,0 l/m 4,3 km/h (1 Bft) O-NO -0,3 C 0,2 C 10,7 km/h (2 Bft)
19.11.2017 03:00 0,1 C 96 % 1018,1 hPa 0,0 l/m 3,5 km/h (1 Bft) O-NO -0,5 C 0,1 C 10,6 km/h (2 Bft)
19.11.2017 04:00 0,1 C 97 % 1017,3 hPa 0,0 l/m 3,4 km/h (1 Bft) NO -0,3 C 0,1 C 10,2 km/h (2 Bft)
19.11.2017 05:00 0,2 C 97 % 1016,8 hPa 0,0 l/m 2,2 km/h (1 Bft) O-NO -0,2 C 0,2 C 6,6 km/h (2 Bft)
19.11.2017 06:00 0,4 C 97 % 1016,8 hPa 0,0 l/m 2,7 km/h (1 Bft) O-NO -0,0 C 0,4 C 8,6 km/h (2 Bft)
19.11.2017 07:00 0,5 C 97 % 1017,4 hPa 0,0 l/m 2,6 km/h (1 Bft) O-NO 0,1 C 0,5 C 8,0 km/h (2 Bft)
19.11.2017 08:00 0,7 C 96 % 1017,9 hPa 0,0 l/m 1,8 km/h (1 Bft) O-NO 0,2 C 0,7 C 6,0 km/h (2 Bft)
19.11.2017 09:00 0,5 C 97 % 1018,8 hPa 0,8 l/m 0,4 km/h (0 Bft) O-NO 0,1 C 0,5 C 2,4 km/h (1 Bft)
19.11.2017 10:00 1,1 C 95 % 1019,6 hPa 1,0 l/m 1,1 km/h (1 Bft) S-SO 0,4 C 1,1 C 5,5 km/h (2 Bft)
19.11.2017 11:00 1,4 C 93 % 1020,2 hPa 1,0 l/m 0,8 km/h (0 Bft) O 0,4 C 1,4 C 3,8 km/h (1 Bft)
19.11.2017 12:00 1,9 C 94 % 1020,4 hPa 2,0 l/m 1,0 km/h (0 Bft) O-SO 1,0 C 1,9 C 3,8 km/h (1 Bft)
19.11.2017 13:00 3,7 C 89 % 1020,5 hPa 3,0 l/m 3,8 km/h (1 Bft) O-NO 2,0 C 3,7 C 10,2 km/h (2 Bft)
19.11.2017 14:00 3,4 C 88 % 1020,5 hPa 2,0 l/m 3,5 km/h (1 Bft) O-NO 1,5 C 3,4 C 10,1 km/h (2 Bft)
19.11.2017 15:00 2,2 C 91 % 1021,0 hPa 0,5 l/m 2,0 km/h (1 Bft) O-NO 0,9 C 2,2 C 6,3 km/h (2 Bft)
19.11.2017 16:00 1,7 C 94 % 1021,6 hPa 0,3 l/m 0,5 km/h (0 Bft) O-NO 0,8 C 1,7 C 2,9 km/h (1 Bft)
19.11.2017 17:00 1,3 C 95 % 1022,2 hPa 0,3 l/m 0,5 km/h (0 Bft) O-NO 0,6 C 1,3 C 2,7 km/h (1 Bft)
19.11.2017 18:00 1,0 C 95 % 1022,6 hPa 0,0 l/m 1,0 km/h (0 Bft) O-NO 0,3 C 1,0 C 3,9 km/h (1 Bft)
19.11.2017 19:00 1,0 C 96 % 1023,2 hPa 0,0 l/m 0,9 km/h (0 Bft) O 0,3 C 1,0 C 2,9 km/h (1 Bft)
19.11.2017 20:00 0,9 C 96 % 1023,8 hPa 0,3 l/m 0,9 km/h (0 Bft) O 0,3 C 0,9 C 2,9 km/h (1 Bft)
19.11.2017 21:00 1,1 C 96 % 1024,4 hPa 0,0 l/m 1,0 km/h (0 Bft) NO 0,5 C 1,1 C 3,3 km/h (1 Bft)
19.11.2017 22:00 0,9 C 96 % 1024,7 hPa 0,0 l/m 0,1 km/h (0 Bft) NO 0,3 C 0,9 C 0,7 km/h (0 Bft)
19.11.2017 23:00 0,5 C 96 % 1024,8 hPa 0,0 l/m 0,0 km/h (0 Bft) NO -0,1 C 0,5 C 0,0 km/h (0 Bft)
Min-Datum _ 15.11.17 15.11.17 13.11.17 - 19.11.17 - 15.11.17 15.11.17 19.11.17
_ Min-Zeit 07:20 13:47 00:01 - 23:00 - 07:20 07:20 23:00
Minimum _ -4,9 C 64 % 1006,7 hPa - 0,0 km/h (0 Bft) - -5,4 C -4,9 C 0,0 km/h (0 Bft)
Max-Datum _ 15.11.17 18.11.17 14.11.17 19.11.17 18.11.17 - 17.11.17 15.11.17 18.11.17
_ Max-Zeit 14:08 09:05 22:10 13:20 18:20 - 14:45 14:34 18:20
Maximum _ 5,8 C 98 % 1028,6 hPa 3,0 l/m 8,4 km/h
O-NO (2 Bft)
- 3,9 C 5,8 C 30,6 km/h
O (5 Bft)
Durchschnitt _ 0,4 C 94 % 1023,4 hPa #15,2 l/m 0,9 km/h (0 Bft) NW -0,4 C 0,4 C 2,8 km/h (1 Bft)